Time;durP1;ratioP1;P1;durP2;ratioP2;P2;SDS_P1;SDS_P2;PMS_P1;PMS_P2;Temp;Humidity;BMP_temperature;BMP_pressure;BME280_temperature;BME280_humidity;BME280_pressure;Samples;Min_cycle;Max_cycle;Signal;HPM_P1;HPM_P2
2022/03/22 00:01:14;;;;;;;8.45;5.43;;;;;;;;;;6093778;23;20457;-84
2022/03/22 00:03:46;;;;;;;5.85;5.25;;;;;;;;;;6097099;23;20446;-85
2022/03/22 00:06:14;;;;;;;5.57;4.68;;;;;;;;;;6086966;23;20027;-85
2022/03/22 00:08:43;;;;;;;5.55;4.63;;;;;;;;;;6094126;23;20029;-84
2022/03/22 00:11:11;;;;;;;6.43;5.82;;;;;;;;;;6098086;23;20018;-83
2022/03/22 00:13:42;;;;;;;4.97;3.72;;;;;;;;;;6039064;23;20022;-82
2022/03/22 00:16:12;;;;;;;5.25;3.17;;;;;;;;;;6063590;23;20029;-82
2022/03/22 00:19:00;;;;;;;5.32;4.88;;;;;;;;;;6067580;23;20015;-82
2022/03/22 00:21:28;;;;;;;18.70;5.45;;;;;;;;;;6086831;23;20030;-82
2022/03/22 00:23:56;;;;;;;4.82;4.43;;;;;;;;;;6063575;23;20022;-82
2022/03/22 00:26:24;;;;;;;12.85;5.60;;;;;;;;;;6062997;23;20028;-82
2022/03/22 00:28:53;;;;;;;6.05;5.53;;;;;;;;;;6093203;23;20457;-82
2022/03/22 00:31:21;;;;;;;10.95;5.72;;;;;;;;;;6064278;23;20026;-81
2022/03/22 00:33:49;;;;;;;10.13;6.55;;;;;;;;;;6091796;23;20807;-82
2022/03/22 00:36:17;;;;;;;8.15;4.72;;;;;;;;;;6097175;23;20018;-82
2022/03/22 00:38:45;;;;;;;6.22;4.18;;;;;;;;;;6096751;23;20015;-82
2022/03/22 00:41:13;;;;;;;8.18;6.95;;;;;;;;;;6086462;23;20615;-81
2022/03/22 00:43:41;;;;;;;5.28;4.72;;;;;;;;;;6087426;23;20018;-82
2022/03/22 00:46:10;;;;;;;6.82;4.93;;;;;;;;;;6086360;23;20030;-82
2022/03/22 00:48:40;;;;;;;8.73;6.85;;;;;;;;;;6095684;23;20027;-82
2022/03/22 00:51:09;;;;;;;5.25;3.45;;;;;;;;;;6087163;23;20023;-82
2022/03/22 00:53:38;;;;;;;8.80;5.88;;;;;;;;;;6091915;23;20034;-82
2022/03/22 00:56:07;;;;;;;4.93;4.22;;;;;;;;;;6086141;23;20018;-82
2022/03/22 00:58:35;;;;;;;9.27;5.13;;;;;;;;;;6098700;23;20014;-82
2022/03/22 01:01:03;;;;;;;10.48;5.00;;;;;;;;;;6092064;23;20037;-81
2022/03/22 01:03:31;;;;;;;6.57;3.92;;;;;;;;;;6098733;23;20018;-82
2022/03/22 01:06:01;;;;;;;8.93;6.28;;;;;;;;;;6091160;23;20037;-82
2022/03/22 01:08:29;;;;;;;6.53;4.57;;;;;;;;;;6096638;23;20045;-82
2022/03/22 01:10:57;;;;;;;6.90;5.63;;;;;;;;;;6099931;23;20022;-81
2022/03/22 01:13:29;;;;;;;13.27;5.10;;;;;;;;;;6088382;23;20030;-82
2022/03/22 01:15:58;;;;;;;14.40;5.38;;;;;;;;;;6065364;23;20026;-82
2022/03/22 01:18:44;;;;;;;8.27;4.72;;;;;;;;;;6088427;23;20041;-82
2022/03/22 01:21:57;;;;;;;;;;;;;;;;;;6092403;23;20034;-82
2022/03/22 01:25:08;;;;;;;32.22;6.95;;;;;;;;;;6068809;23;19921;-82
2022/03/22 01:28:30;;;;;;;7.30;6.53;;;;;;;;;;6095738;23;20024;-82
2022/03/22 01:31:45;;;;;;;12.68;7.03;;;;;;;;;;6121717;23;20028;-82
2022/03/22 01:35:05;;;;;;;11.48;6.63;;;;;;;;;;6093296;23;20025;-82
2022/03/22 01:38:13;;;;;;;7.57;6.80;;;;;;;;;;6150208;23;20032;-82
2022/03/22 01:40:42;;;;;;;6.60;5.65;;;;;;;;;;6154906;23;20790;-82
2022/03/22 01:43:10;;;;;;;13.48;6.15;;;;;;;;;;6132752;23;20017;-82
2022/03/22 01:45:39;;;;;;;9.90;7.63;;;;;;;;;;6125545;23;20026;-82
2022/03/22 01:48:15;;;;;;;8.98;5.82;;;;;;;;;;6075025;23;20033;-82
2022/03/22 01:50:43;;;;;;;6.82;5.65;;;;;;;;;;6122698;23;20022;-82
2022/03/22 01:53:11;;;;;;;9.07;6.43;;;;;;;;;;6127482;23;20413;-82
2022/03/22 01:55:40;;;;;;;9.65;6.60;;;;;;;;;;6107870;23;20018;-82
2022/03/22 01:58:08;;;;;;;7.20;5.13;;;;;;;;;;6122877;23;20036;-82
2022/03/22 02:00:36;;;;;;;10.57;5.07;;;;;;;;;;6146440;23;20519;-82
2022/03/22 02:05:56;;;;;;;6.80;5.35;;;;;;;;;;6121735;23;20520;-82
2022/03/22 02:08:31;;;;;;;6.63;5.63;;;;;;;;;;6131165;23;20373;-82
2022/03/22 02:11:00;;;;;;;6.93;5.07;;;;;;;;;;6122482;23;20040;-82
2022/03/22 02:13:29;;;;;;;6.18;5.57;;;;;;;;;;6126069;23;20037;-82
2022/03/22 02:15:59;;;;;;;6.50;5.00;;;;;;;;;;6097858;23;20022;-82
2022/03/22 02:18:27;;;;;;;13.48;6.15;;;;;;;;;;6096814;23;20453;-81
2022/03/22 02:20:57;;;;;;;7.25;6.30;;;;;;;;;;6103632;23;20049;-81
2022/03/22 02:23:36;;;;;;;9.05;7.50;;;;;;;;;;6122155;23;20460;-81
2022/03/22 02:26:04;;;;;;;7.88;5.60;;;;;;;;;;6123064;23;20029;-81
2022/03/22 02:28:32;;;;;;;11.10;7.20;;;;;;;;;;6155282;23;20025;-81
2022/03/22 02:31:01;;;;;;;6.57;6.03;;;;;;;;;;6107782;23;20064;-81
2022/03/22 02:33:29;;;;;;;9.48;6.10;;;;;;;;;;6125640;23;20029;-82
2022/03/22 02:35:58;;;;;;;9.48;6.50;;;;;;;;;;6146781;23;20036;-82
2022/03/22 02:38:26;;;;;;;9.23;5.65;;;;;;;;;;6097864;23;20041;-82
2022/03/22 02:40:54;;;;;;;6.47;5.25;;;;;;;;;;6096499;23;20026;-81
2022/03/22 02:43:22;;;;;;;10.05;5.63;;;;;;;;;;6097586;23;20017;-82
2022/03/22 02:45:51;;;;;;;7.95;5.90;;;;;;;;;;6150310;23;20032;-82
2022/03/22 02:48:19;;;;;;;8.75;4.75;;;;;;;;;;6121309;23;20025;-81
2022/03/22 02:50:47;;;;;;;10.20;8.18;;;;;;;;;;6097267;23;20022;-82
2022/03/22 02:53:15;;;;;;;7.60;4.90;;;;;;;;;;6102276;23;20030;-82
2022/03/22 02:55:43;;;;;;;6.72;4.78;;;;;;;;;;6131262;23;20040;-81
2022/03/22 02:58:11;;;;;;;8.20;4.95;;;;;;;;;;6145140;23;20334;-81
2022/03/22 03:00:39;;;;;;;5.57;5.07;;;;;;;;;;6128856;23;20033;-82
2022/03/22 03:03:07;;;;;;;8.20;5.82;;;;;;;;;;6121661;23;20022;-82
2022/03/22 03:05:42;;;;;;;5.57;4.95;;;;;;;;;;6097200;23;20029;-82
2022/03/22 03:08:21;;;;;;;6.43;5.35;;;;;;;;;;6131279;23;20018;-82
2022/03/22 03:10:54;;;;;;;7.43;5.45;;;;;;;;;;6121657;23;20018;-82
2022/03/22 03:13:22;;;;;;;8.20;6.72;;;;;;;;;;6126172;23;20032;-83
2022/03/22 03:15:50;;;;;;;9.32;7.22;;;;;;;;;;6131856;23;20037;-83
2022/03/22 03:18:19;;;;;;;8.82;6.70;;;;;;;;;;6121465;23;20034;-83
2022/03/22 03:20:47;;;;;;;12.63;6.95;;;;;;;;;;6154150;23;20025;-83
2022/03/22 03:23:15;;;;;;;9.75;5.97;;;;;;;;;;6097507;23;20018;-83
2022/03/22 03:25:43;;;;;;;6.75;5.40;;;;;;;;;;6149747;23;20056;-83
2022/03/22 03:28:11;;;;;;;10.05;5.97;;;;;;;;;;6156657;23;20341;-83
2022/03/22 03:30:39;;;;;;;6.82;5.10;;;;;;;;;;6146441;23;20032;-83
2022/03/22 03:33:08;;;;;;;7.40;5.50;;;;;;;;;;6101785;23;20025;-82
2022/03/22 03:35:36;;;;;;;6.60;5.60;;;;;;;;;;6121441;23;20029;-83
2022/03/22 03:38:04;;;;;;;8.13;5.78;;;;;;;;;;6097592;23;20036;-83
2022/03/22 03:43:18;;;;;;;10.50;5.50;;;;;;;;;;6148066;23;20462;-83
2022/03/22 03:48:33;;;;;;;7.55;6.82;;;;;;;;;;6121040;23;20037;-83
2022/03/22 03:51:02;;;;;;;6.60;5.85;;;;;;;;;;6157869;23;20028;-83
2022/03/22 03:53:30;;;;;;;13.57;6.90;;;;;;;;;;6125064;23;20022;-83
2022/03/22 03:55:58;;;;;;;7.68;6.90;;;;;;;;;;6157123;23;20014;-83
2022/03/22 03:58:26;;;;;;;8.80;6.22;;;;;;;;;;6096829;23;20540;-83
2022/03/22 04:00:54;;;;;;;6.68;5.40;;;;;;;;;;6096754;23;20036;-83
2022/03/22 04:03:23;;;;;;;8.18;7.40;;;;;;;;;;6122232;23;20036;-83
2022/03/22 04:05:51;;;;;;;4.88;4.18;;;;;;;;;;6096870;23;20056;-83
2022/03/22 04:08:19;;;;;;;10.38;5.90;;;;;;;;;;6154620;23;20021;-83
2022/03/22 04:10:47;;;;;;;9.90;6.40;;;;;;;;;;6106659;23;20452;-83
2022/03/22 04:13:15;;;;;;;8.20;6.38;;;;;;;;;;6096496;23;20026;-83
2022/03/22 04:15:43;;;;;;;7.75;5.50;;;;;;;;;;6131720;23;20014;-84
2022/03/22 04:18:11;;;;;;;9.75;5.97;;;;;;;;;;6098245;23;20425;-83
2022/03/22 04:20:39;;;;;;;9.98;6.15;;;;;;;;;;6145247;23;20034;-83
2022/03/22 04:23:08;;;;;;;7.95;5.47;;;;;;;;;;6131553;23;20028;-84
2022/03/22 04:25:37;;;;;;;11.57;4.97;;;;;;;;;;6119013;23;20366;-83
2022/03/22 04:33:40;;;;;;;9.93;6.65;;;;;;;;;;6082470;23;20026;-86
2022/03/22 04:36:14;;;;;;;7.78;6.35;;;;;;;;;;6096508;23;20021;-83
2022/03/22 04:38:42;;;;;;;8.30;6.05;;;;;;;;;;6097023;23;20014;-83
2022/03/22 04:41:11;;;;;;;8.00;6.78;;;;;;;;;;6153723;23;20022;-83
2022/03/22 04:43:39;;;;;;;9.30;6.90;;;;;;;;;;6099047;23;20021;-83
2022/03/22 04:46:08;;;;;;;11.20;6.90;;;;;;;;;;6099806;23;20029;-83
2022/03/22 04:48:41;;;;;;;9.40;7.20;;;;;;;;;;6098847;23;20037;-83
2022/03/22 04:56:46;;;;;;;11.82;6.82;;;;;;;;;;6129454;23;20729;-83
2022/03/22 04:59:19;;;;;;;10.45;5.55;;;;;;;;;;6159631;23;20088;-83
2022/03/22 05:01:49;;;;;;;7.95;5.88;;;;;;;;;;6125380;23;20025;-83
2022/03/22 05:04:18;;;;;;;14.48;5.68;;;;;;;;;;6131753;23;20017;-83
2022/03/22 05:06:46;;;;;;;7.45;6.40;;;;;;;;;;6122941;23;20022;-83
2022/03/22 05:09:14;;;;;;;11.13;5.97;;;;;;;;;;6127625;23;20041;-83
2022/03/22 05:11:42;;;;;;;6.35;5.53;;;;;;;;;;6133134;23;20445;-82
2022/03/22 05:14:11;;;;;;;7.30;6.38;;;;;;;;;;6099508;23;20034;-83
2022/03/22 05:16:45;;;;;;;10.35;6.65;;;;;;;;;;6130900;23;20021;-82
2022/03/22 05:19:13;;;;;;;8.73;5.47;;;;;;;;;;6149180;23;20349;-82
2022/03/22 05:21:42;;;;;;;8.73;7.45;;;;;;;;;;6101313;23;20476;-83
2022/03/22 05:24:10;;;;;;;6.03;5.43;;;;;;;;;;6158119;23;20032;-83
2022/03/22 05:26:38;;;;;;;9.05;6.22;;;;;;;;;;6126654;23;20348;-83
2022/03/22 05:29:06;;;;;;;11.60;6.05;;;;;;;;;;6064171;23;20034;-83
2022/03/22 05:31:34;;;;;;;9.02;7.10;;;;;;;;;;6089012;23;20052;-83
2022/03/22 05:34:03;;;;;;;3.97;3.58;;;;;;;;;;6040846;23;20529;-83
2022/03/22 05:36:32;;;;;;;7.63;6.55;;;;;;;;;;6095915;23;20743;-83
2022/03/22 05:39:00;;;;;;;10.35;4.40;;;;;;;;;;6064966;23;20027;-83
2022/03/22 05:41:29;;;;;;;6.47;4.53;;;;;;;;;;6091549;23;20045;-83
2022/03/22 05:43:58;;;;;;;6.00;5.40;;;;;;;;;;6064905;23;20033;-83
2022/03/22 05:46:26;;;;;;;14.38;6.85;;;;;;;;;;6087466;23;20038;-83
2022/03/22 05:48:55;;;;;;;7.78;7.00;;;;;;;;;;6069954;23;20026;-82
2022/03/22 05:51:23;;;;;;;7.10;5.65;;;;;;;;;;6063716;23;20026;-82
2022/03/22 05:53:51;;;;;;;10.80;6.07;;;;;;;;;;6065992;23;20041;-83
2022/03/22 05:56:19;;;;;;;11.18;7.43;;;;;;;;;;6095756;23;20026;-83
2022/03/22 05:58:47;;;;;;;10.65;5.75;;;;;;;;;;6073921;23;20015;-83
2022/03/22 06:01:16;;;;;;;8.52;5.97;;;;;;;;;;6087505;23;20033;-82
2022/03/22 06:03:47;;;;;;;11.88;7.15;;;;;;;;;;6088635;23;20454;-80
2022/03/22 06:06:15;;;;;;;5.82;5.22;;;;;;;;;;6052153;23;20065;-83
2022/03/22 06:08:45;;;;;;;7.88;5.95;;;;;;;;;;6071021;23;20095;-83
2022/03/22 06:11:13;;;;;;;5.30;4.90;;;;;;;;;;6087882;23;20026;-81
2022/03/22 06:13:41;;;;;;;9.57;6.90;;;;;;;;;;6090445;23;20026;-82
2022/03/22 06:16:10;;;;;;;11.68;6.63;;;;;;;;;;6063745;23;20364;-81
2022/03/22 06:18:38;;;;;;;7.53;6.93;;;;;;;;;;6097881;23;20037;-81
2022/03/22 06:21:06;;;;;;;7.55;6.72;;;;;;;;;;6063904;23;20034;-81
2022/03/22 06:23:35;;;;;;;11.13;6.47;;;;;;;;;;6064616;23;20025;-81
2022/03/22 06:26:04;;;;;;;8.50;6.07;;;;;;;;;;6062712;23;20459;-79
2022/03/22 06:28:32;;;;;;;10.95;4.65;;;;;;;;;;6063757;23;20018;-77
2022/03/22 06:31:00;;;;;;;9.23;6.05;;;;;;;;;;6099630;23;20034;-77
2022/03/22 06:33:29;;;;;;;8.52;4.55;;;;;;;;;;6093326;23;20053;-79
2022/03/22 06:35:57;;;;;;;6.45;5.85;;;;;;;;;;6099880;23;20022;-80
2022/03/22 06:38:25;;;;;;;7.30;4.18;;;;;;;;;;6089920;23;20031;-79
2022/03/22 06:40:53;;;;;;;6.25;5.07;;;;;;;;;;6093938;23;20033;-79
2022/03/22 06:43:21;;;;;;;9.23;6.65;;;;;;;;;;6097979;23;20022;-78
2022/03/22 06:45:49;;;;;;;8.35;7.70;;;;;;;;;;6090084;23;20026;-78
2022/03/22 06:48:18;;;;;;;9.80;7.30;;;;;;;;;;6096157;23;20406;-78
2022/03/22 06:50:49;;;;;;;11.15;6.20;;;;;;;;;;6099428;23;20018;-78
2022/03/22 06:53:17;;;;;;;;;;;;;;;;;;6093761;23;20026;-78
2022/03/22 06:55:45;;;;;;;6.45;5.82;;;;;;;;;;6098744;23;20479;-79
2022/03/22 06:58:16;;;;;;;14.82;6.43;;;;;;;;;;6088038;23;20430;-79
2022/03/22 07:00:46;;;;;;;6.93;5.63;;;;;;;;;;6063383;23;20034;-79
2022/03/22 07:03:15;;;;;;;9.50;7.63;;;;;;;;;;6099169;23;20014;-79
2022/03/22 07:05:47;;;;;;;9.07;5.57;;;;;;;;;;6091868;23;20033;-79
2022/03/22 07:08:15;;;;;;;9.48;5.70;;;;;;;;;;6096033;23;20339;-80
2022/03/22 07:11:47;;;;;;;10.07;6.35;;;;;;;;;;6095305;23;20021;-77
2022/03/22 07:13:32;;;;;;;7.10;5.35;;;;;;;;;;6091121;23;20026;-78
2022/03/22 07:16:12;;;;;;;10.53;6.80;;;;;;;;;;6097053;23;20018;-78
2022/03/22 07:18:40;;;;;;;9.63;5.97;;;;;;;;;;6096603;23;20189;-79
2022/03/22 07:21:08;;;;;;;7.32;6.65;;;;;;;;;;6086332;23;20042;-79
2022/03/22 07:23:36;;;;;;;7.13;6.43;;;;;;;;;;6098437;23;20037;-79
2022/03/22 07:26:05;;;;;;;7.50;5.90;;;;;;;;;;6105880;23;20026;-78
2022/03/22 07:28:34;;;;;;;7.53;6.05;;;;;;;;;;6154863;23;20030;-80
2022/03/22 07:31:02;;;;;;;11.43;6.72;;;;;;;;;;6157096;23;20020;-79
2022/03/22 07:33:30;;;;;;;9.77;6.55;;;;;;;;;;6148669;23;20025;-79
2022/03/22 07:36:02;;;;;;;8.13;6.53;;;;;;;;;;6154580;23;20024;-81
2022/03/22 07:38:32;;;;;;;9.63;6.55;;;;;;;;;;6118570;23;20029;-80
2022/03/22 07:41:00;;;;;;;5.63;5.13;;;;;;;;;;6100565;23;20033;-81
2022/03/22 07:43:30;;;;;;;7.88;6.60;;;;;;;;;;6156868;23;20201;-80
2022/03/22 07:45:58;;;;;;;30.42;7.95;;;;;;;;;;6148688;23;20021;-81
2022/03/22 07:48:26;;;;;;;7.72;6.93;;;;;;;;;;6154781;23;20021;-80
2022/03/22 07:53:44;;;;;;;5.38;4.82;;;;;;;;;;6119934;23;20032;-80
2022/03/22 07:56:26;;;;;;;9.52;6.25;;;;;;;;;;6127032;23;20631;-78
2022/03/22 07:59:14;;;;;;;6.07;4.63;;;;;;;;;;6155807;23;20020;-77
2022/03/22 08:01:43;;;;;;;7.20;5.45;;;;;;;;;;6123046;23;20492;-78
2022/03/22 08:04:13;;;;;;;8.73;6.05;;;;;;;;;;6156154;23;20420;-78
2022/03/22 08:06:42;;;;;;;10.25;7.43;;;;;;;;;;6130658;23;20021;-79
2022/03/22 08:09:11;;;;;;;10.88;7.47;;;;;;;;;;6142659;23;20029;-78
2022/03/22 08:11:40;;;;;;;10.02;7.93;;;;;;;;;;6152371;23;20025;-79
2022/03/22 08:14:15;;;;;;;11.60;6.47;;;;;;;;;;6119427;23;20357;-79
2022/03/22 08:16:51;;;;;;;5.82;5.32;;;;;;;;;;6124099;23;20057;-78
2022/03/22 08:19:28;;;;;;;8.38;5.75;;;;;;;;;;6122566;23;20625;-79
2022/03/22 08:22:05;;;;;;;9.10;5.75;;;;;;;;;;6121977;23;20028;-79
2022/03/22 08:24:42;;;;;;;8.40;6.45;;;;;;;;;;6122532;23;20044;-79
2022/03/22 08:27:12;;;;;;;6.60;5.87;;;;;;;;;;6148135;23;20488;-79
2022/03/22 08:29:46;;;;;;;8.88;5.13;;;;;;;;;;6122033;23;20029;-79
2022/03/22 08:32:21;;;;;;;10.55;6.60;;;;;;;;;;6121262;23;20017;-79
2022/03/22 08:34:56;;;;;;;8.90;7.60;;;;;;;;;;6147650;23;20019;-79
2022/03/22 08:40:53;;;;;;;10.02;7.00;;;;;;;;;;6095065;23;20030;-78
2022/03/22 08:43:33;;;;;;;8.82;6.07;;;;;;;;;;6097867;23;20029;-79
2022/03/22 08:46:05;;;;;;;9.88;6.47;;;;;;;;;;6097227;23;20441;-78
2022/03/22 08:48:34;;;;;;;6.13;5.15;;;;;;;;;;6097465;23;20032;-79
2022/03/22 08:51:04;;;;;;;8.55;5.90;;;;;;;;;;6108253;23;20449;-78
2022/03/22 08:53:35;;;;;;;9.18;5.15;;;;;;;;;;6072610;23;20029;-79
2022/03/22 08:56:03;;;;;;;8.57;6.70;;;;;;;;;;6156695;23;20025;-79
2022/03/22 08:58:33;;;;;;;5.63;5.10;;;;;;;;;;6121199;23;20025;-79
2022/03/22 09:01:03;;;;;;;6.65;5.38;;;;;;;;;;6126967;23;20029;-79
2022/03/22 09:03:35;;;;;;;12.82;5.95;;;;;;;;;;6132178;23;20010;-79
2022/03/22 09:06:11;;;;;;;9.43;6.10;;;;;;;;;;6097075;23;20029;-80
2022/03/22 09:08:49;;;;;;;8.80;6.95;;;;;;;;;;6154384;23;20033;-79
2022/03/22 09:11:28;;;;;;;7.28;5.93;;;;;;;;;;6129809;23;20390;-80
2022/03/22 09:13:56;;;;;;;7.75;7.05;;;;;;;;;;6147954;23;20030;-79
2022/03/22 09:16:24;;;;;;;8.35;6.97;;;;;;;;;;6129976;23;20352;-77
2022/03/22 09:18:52;;;;;;;10.18;6.90;;;;;;;;;;6156749;23;20013;-79
2022/03/22 09:21:23;;;;;;;11.50;7.45;;;;;;;;;;6097989;23;20026;-81
2022/03/22 09:23:51;;;;;;;8.95;6.43;;;;;;;;;;6108461;23;20032;-81
2022/03/22 09:26:20;;;;;;;12.90;5.72;;;;;;;;;;6104931;23;20026;-80
2022/03/22 09:28:52;;;;;;;7.07;6.43;;;;;;;;;;6095965;23;20030;-80
2022/03/22 09:31:24;;;;;;;9.20;5.65;;;;;;;;;;6097372;23;20346;-77
2022/03/22 09:33:53;;;;;;;7.82;5.85;;;;;;;;;;6091953;23;20030;-78
2022/03/22 09:36:21;;;;;;;7.88;6.25;;;;;;;;;;6096289;23;20450;-78
2022/03/22 09:38:49;;;;;;;10.35;5.82;;;;;;;;;;6098429;23;20015;-79
2022/03/22 09:41:17;;;;;;;10.88;7.03;;;;;;;;;;6093747;23;20069;-79
2022/03/22 09:43:47;;;;;;;15.38;7.78;;;;;;;;;;6087730;23;20022;-79
2022/03/22 09:46:20;;;;;;;7.43;6.82;;;;;;;;;;6089845;23;20030;-79
2022/03/22 09:48:48;;;;;;;8.43;6.35;;;;;;;;;;6094259;23;20030;-79
2022/03/22 09:54:07;;;;;;;7.28;5.22;;;;;;;;;;6091089;23;20454;-79
2022/03/22 09:56:35;;;;;;;13.93;6.78;;;;;;;;;;6095599;23;20368;-79
2022/03/22 09:59:06;;;;;;;7.32;6.57;;;;;;;;;;6099140;23;20018;-78
2022/03/22 10:01:35;;;;;;;10.93;7.68;;;;;;;;;;6087439;23;20022;-79
2022/03/22 10:04:05;;;;;;;8.52;5.82;;;;;;;;;;6098442;23;20025;-79
2022/03/22 10:06:37;;;;;;;8.65;7.80;;;;;;;;;;6086431;23;20023;-80
2022/03/22 10:09:07;;;;;;;7.40;4.80;;;;;;;;;;6092522;23;20026;-80
2022/03/22 10:11:39;;;;;;;9.63;5.13;;;;;;;;;;6063412;23;20030;-80
2022/03/22 10:14:08;;;;;;;10.35;6.28;;;;;;;;;;6088210;23;20038;-80
2022/03/22 10:16:48;;;;;;;12.20;11.10;;;;;;;;;;6095702;23;20030;-77
2022/03/22 10:19:24;;;;;;;11.80;6.30;;;;;;;;;;6087711;23;20741;-77
2022/03/22 10:21:54;;;;;;;10.18;6.00;;;;;;;;;;6091027;23;20026;-78
2022/03/22 10:24:22;;;;;;;7.53;6.75;;;;;;;;;;6095551;23;20026;-77
2022/03/22 10:26:51;;;;;;;6.10;5.50;;;;;;;;;;6118022;23;20026;-77
2022/03/22 10:29:20;;;;;;;9.98;6.28;;;;;;;;;;6125957;23;20029;-78
2022/03/22 10:31:50;;;;;;;9.55;6.80;;;;;;;;;;6107535;23;20018;-77
2022/03/22 10:34:28;;;;;;;7.95;7.22;;;;;;;;;;6122017;23;20025;-77
2022/03/22 10:37:18;;;;;;;8.65;5.57;;;;;;;;;;6153170;23;20032;-78
2022/03/22 10:40:42;;;;;;;10.93;6.28;;;;;;;;;;6154670;23;20386;-78
2022/03/22 10:44:14;;;;;;;7.70;7.05;;;;;;;;;;6158093;23;20017;-77
2022/03/22 10:47:39;;;;;;;7.13;6.40;;;;;;;;;;6104184;23;20033;-78
2022/03/22 10:51:06;;;;;;;9.68;8.73;;;;;;;;;;6049446;23;20456;-78
2022/03/22 10:54:19;;;;;;;6.25;5.20;;;;;;;;;;6123861;23;20040;-78
2022/03/22 10:56:54;;;;;;;7.97;6.78;;;;;;;;;;6120243;23;20029;-78
2022/03/22 10:59:23;;;;;;;8.63;6.35;;;;;;;;;;6131041;23;20025;-78
2022/03/22 11:01:54;;;;;;;7.38;6.68;;;;;;;;;;6149817;23;20544;-80
2022/03/22 11:04:22;;;;;;;8.40;7.50;;;;;;;;;;6155934;23;20353;-79
2022/03/22 11:06:50;;;;;;;11.07;5.90;;;;;;;;;;6155714;23;20024;-80
2022/03/22 11:09:24;;;;;;;8.43;7.13;;;;;;;;;;6094403;23;20027;-79
2022/03/22 11:11:52;;;;;;;9.35;5.80;;;;;;;;;;6096995;23;20028;-81
2022/03/22 11:14:20;;;;;;;6.00;5.18;;;;;;;;;;6120240;23;20460;-80
2022/03/22 11:16:49;;;;;;;6.93;5.18;;;;;;;;;;6096587;23;20029;-81
2022/03/22 11:19:22;;;;;;;7.47;5.88;;;;;;;;;;6132038;23;20017;-81
2022/03/22 11:21:50;;;;;;;7.40;6.38;;;;;;;;;;6124759;23;20026;-81
2022/03/22 11:24:24;;;;;;;8.27;5.95;;;;;;;;;;6155793;23;20025;-81
2022/03/22 11:26:57;;;;;;;12.60;7.90;;;;;;;;;;6109254;23;20111;-81
2022/03/22 11:29:25;;;;;;;7.70;5.90;;;;;;;;;;6086137;23;20029;-79
2022/03/22 11:34:41;;;;;;;10.38;6.63;;;;;;;;;;6094152;23;20026;-80
2022/03/22 11:37:10;;;;;;;7.93;4.70;;;;;;;;;;6091679;23;20706;-79
2022/03/22 11:42:25;;;;;;;5.68;5.13;;;;;;;;;;6060979;23;20030;-79
2022/03/22 11:44:56;;;;;;;8.25;5.97;;;;;;;;;;6093797;23;20622;-78
2022/03/22 11:47:27;;;;;;;6.30;5.75;;;;;;;;;;6098262;23;20442;-78
2022/03/22 11:50:06;;;;;;;11.07;6.00;;;;;;;;;;6064132;23;20383;-76
2022/03/22 11:52:37;;;;;;;7.65;5.80;;;;;;;;;;6086187;23;20029;-80
2022/03/22 11:55:15;;;;;;;6.57;5.35;;;;;;;;;;6063016;23;20026;-80
2022/03/22 11:57:48;;;;;;;6.15;3.95;;;;;;;;;;6086107;23;20034;-80
2022/03/22 12:00:35;;;;;;;6.22;4.40;;;;;;;;;;6095697;23;20019;-80
2022/03/22 12:03:08;;;;;;;5.53;5.03;;;;;;;;;;6038858;23;20545;-81
2022/03/22 12:05:36;;;;;;;4.15;3.17;;;;;;;;;;6091052;23;20043;-78
2022/03/22 12:08:08;;;;;;;8.70;6.07;;;;;;;;;;6098446;23;20737;-80
2022/03/22 12:10:37;;;;;;;6.35;4.97;;;;;;;;;;6085537;23;20038;-78
2022/03/22 12:13:05;;;;;;;4.05;3.75;;;;;;;;;;6093521;23;20033;-79
2022/03/22 12:15:33;;;;;;;5.80;4.68;;;;;;;;;;6086862;23;20026;-79
2022/03/22 12:18:01;;;;;;;5.65;4.65;;;;;;;;;;6082014;23;20035;-85
2022/03/22 12:20:30;;;;;;;16.92;4.72;;;;;;;;;;6062701;23;20405;-81
2022/03/22 12:22:59;;;;;;;24.73;4.93;;;;;;;;;;6097822;23;20015;-82
2022/03/22 12:25:31;;;;;;;4.00;3.40;;;;;;;;;;6089804;23;20030;-81
2022/03/22 12:28:04;;;;;;;5.72;3.75;;;;;;;;;;6140450;23;20026;-82
2022/03/22 12:30:50;;;;;;;5.30;4.07;;;;;;;;;;6092220;23;20033;-81
2022/03/22 12:33:21;;;;;;;4.50;3.70;;;;;;;;;;6125825;23;20036;-80
2022/03/22 12:35:50;;;;;;;5.32;3.83;;;;;;;;;;6131719;23;20064;-85
2022/03/22 12:38:18;;;;;;;7.47;6.47;;;;;;;;;;6120195;23;20022;-82
2022/03/22 12:40:48;;;;;;;4.05;3.63;;;;;;;;;;6119788;23;20026;-82
2022/03/22 12:43:19;;;;;;;6.30;5.18;;;;;;;;;;6121231;23;20695;-82
2022/03/22 12:45:49;;;;;;;3.38;3.03;;;;;;;;;;6120154;23;20026;-84
2022/03/22 12:48:18;;;;;;;5.40;3.72;;;;;;;;;;6105216;23;20021;-83
2022/03/22 12:50:47;;;;;;;3.70;3.40;;;;;;;;;;6131128;23;20025;-81
2022/03/22 12:53:15;;;;;;;4.05;3.63;;;;;;;;;;6120516;23;20432;-82
2022/03/22 12:55:44;;;;;;;6.13;4.38;;;;;;;;;;6120090;23;20025;-82
2022/03/22 12:58:12;;;;;;;4.50;3.72;;;;;;;;;;6121605;23;20033;-81
2022/03/22 13:00:41;;;;;;;4.85;4.43;;;;;;;;;;6128287;23;20362;-80
2022/03/22 13:03:11;;;;;;;4.78;3.60;;;;;;;;;;6121935;23;20032;-83
2022/03/22 13:05:40;;;;;;;3.88;3.35;;;;;;;;;;6102277;23;20033;-82
2022/03/22 13:08:23;;;;;;;3.85;3.42;;;;;;;;;;6132564;23;20021;-80
2022/03/22 13:16:30;;;;;;;3.53;2.63;;;;;;;;;;6148585;23;19928;-81
2022/03/22 13:18:59;;;;;;;4.05;3.65;;;;;;;;;;6158912;23;20029;-83
2022/03/22 13:21:30;;;;;;;4.53;3.88;;;;;;;;;;6096921;23;20034;-82
2022/03/22 13:24:17;;;;;;;5.22;3.08;;;;;;;;;;6133373;23;20066;-78
2022/03/22 13:26:56;;;;;;;3.13;2.13;;;;;;;;;;6082641;23;20037;-81
2022/03/22 13:29:38;;;;;;;4.50;2.55;;;;;;;;;;6152931;23;20465;-82
2022/03/22 13:32:08;;;;;;;2.88;2.58;;;;;;;;;;6109352;23;20014;-81
2022/03/22 13:34:38;;;;;;;2.83;2.30;;;;;;;;;;6123064;23;20454;-81
2022/03/22 13:37:08;;;;;;;3.22;2.92;;;;;;;;;;6127514;23;20025;-80
2022/03/22 13:39:36;;;;;;;1.92;1.60;;;;;;;;;;6158823;23;20686;-78
2022/03/22 13:42:10;;;;;;;6.05;2.63;;;;;;;;;;6125179;23;20033;-79
2022/03/22 13:44:45;;;;;;;6.38;2.78;;;;;;;;;;6098304;23;20571;-80
2022/03/22 13:47:30;;;;;;;4.13;2.88;;;;;;;;;;6159012;23;20017;-79
2022/03/22 13:50:11;;;;;;;11.77;3.67;;;;;;;;;;6151333;23;20032;-79
2022/03/22 13:52:40;;;;;;;3.55;1.65;;;;;;;;;;6122380;23;20029;-80
2022/03/22 13:55:19;;;;;;;2.20;2.00;;;;;;;;;;6132695;23;20029;-80
2022/03/22 13:57:50;;;;;;;3.17;2.55;;;;;;;;;;6099624;23;20025;-81
2022/03/22 14:00:43;;;;;;;2.33;2.10;;;;;;;;;;6101751;23;20025;-80
2022/03/22 14:03:11;;;;;;;3.25;2.97;;;;;;;;;;6097242;23;20048;-82
2022/03/22 14:05:40;;;;;;;4.82;2.45;;;;;;;;;;6120608;23;20022;-81
2022/03/22 14:08:12;;;;;;;3.13;2.55;;;;;;;;;;6096455;23;20021;-83
2022/03/22 14:30:21;;;;;;;1.50;1.40;;;;;;;;;;6145020;23;20034;-77
2022/03/22 14:32:51;;;;;;;2.95;2.70;;;;;;;;;;6154391;23;20032;-77
2022/03/22 14:38:11;;;;;;;2.65;2.45;;;;;;;;;;6121720;23;20791;-80
2022/03/22 14:40:40;;;;;;;2.40;2.20;;;;;;;;;;6154476;23;20883;-82
2022/03/22 14:43:09;;;;;;;2.83;2.10;;;;;;;;;;6156291;23;20013;-78
2022/03/22 14:45:38;;;;;;;5.93;3.30;;;;;;;;;;6149879;23;20025;-78
2022/03/22 14:48:07;;;;;;;5.97;3.97;;;;;;;;;;6157219;23;20021;-79
2022/03/22 14:50:36;;;;;;;3.80;3.45;;;;;;;;;;6158556;23;20024;-81
2022/03/22 14:58:47;;;;;;;3.25;2.95;;;;;;;;;;6158032;23;20029;-82
2022/03/22 14:58:47;;;;;;;2.78;2.58;;;;;;;;;;6129231;23;20029;-80
2022/03/22 15:01:16;;;;;;;4.15;3.33;;;;;;;;;;6152293;23;20092;-80
2022/03/22 15:03:45;;;;;;;3.40;3.08;;;;;;;;;;6157903;23;20029;-81
2022/03/22 15:06:18;;;;;;;3.63;2.65;;;;;;;;;;6148512;23;20025;-77
2022/03/22 15:08:48;;;;;;;2.88;2.65;;;;;;;;;;6153460;23;20026;-74
2022/03/22 15:11:17;;;;;;;4.40;3.97;;;;;;;;;;6129104;23;20416;-75
2022/03/22 15:13:45;;;;;;;4.40;3.50;;;;;;;;;;6123597;23;20033;-76
2022/03/22 15:16:13;;;;;;;3.33;3.10;;;;;;;;;;6156577;23;20024;-75
2022/03/22 15:18:42;;;;;;;4.30;2.45;;;;;;;;;;6157743;23;20014;-75
2022/03/22 15:21:10;;;;;;;3.72;2.75;;;;;;;;;;6152300;23;20025;-75
2022/03/22 15:23:39;;;;;;;3.58;3.25;;;;;;;;;;6157192;23;20024;-75
2022/03/22 15:26:08;;;;;;;5.72;4.47;;;;;;;;;;6147683;23;20416;-75
2022/03/22 15:28:39;;;;;;;5.22;3.28;;;;;;;;;;6126748;23;20570;-74
2022/03/22 15:31:17;;;;;;;4.32;3.10;;;;;;;;;;6157694;23;20014;-74
2022/03/22 15:33:46;;;;;;;3.53;3.22;;;;;;;;;;6149992;23;20203;-76
2022/03/22 15:36:14;;;;;;;3.03;2.83;;;;;;;;;;6155899;23;20319;-75
2022/03/22 15:38:42;;;;;;;6.53;3.05;;;;;;;;;;6157283;23;20025;-76
2022/03/22 15:41:11;;;;;;;10.48;3.70;;;;;;;;;;6144557;23;20033;-78
2022/03/22 15:43:39;;;;;;;4.00;2.92;;;;;;;;;;6131277;23;20040;-78
2022/03/22 15:46:08;;;;;;;4.20;3.45;;;;;;;;;;6147853;23;20029;-76
2022/03/22 15:48:37;;;;;;;5.68;4.35;;;;;;;;;;6153726;23;20053;-76
2022/03/22 15:51:06;;;;;;;4.57;2.53;;;;;;;;;;6157080;23;20017;-77
2022/03/22 15:53:35;;;;;;;4.63;4.18;;;;;;;;;;6150110;23;20029;-77
2022/03/22 15:56:03;;;;;;;11.13;3.03;;;;;;;;;;6153637;23;20017;-77
2022/03/22 15:58:31;;;;;;;4.32;3.15;;;;;;;;;;6146042;23;20026;-78
2022/03/22 16:00:59;;;;;;;2.83;2.53;;;;;;;;;;6152603;23;20348;-79
2022/03/22 16:03:28;;;;;;;3.15;2.85;;;;;;;;;;6156809;23;20020;-78
2022/03/22 16:05:58;;;;;;;3.45;2.40;;;;;;;;;;6145156;23;20026;-77
2022/03/22 16:08:26;;;;;;;3.03;2.80;;;;;;;;;;6155187;23;20036;-77
2022/03/22 16:10:55;;;;;;;3.65;3.20;;;;;;;;;;6157299;23;20021;-82
2022/03/22 16:13:23;;;;;;;3.42;2.95;;;;;;;;;;6119412;23;20028;-84